ZSPD/PVG METAR and TAF weather

Enter ICAO airport designator
Station Type Date Time Source
ZSPD METAR 2022/06/30 14:00 UTC NOAA

ZSPD 301400Z 16006MPS CAVOK 27/24 Q1009 NOSIG


Station Type Date Time Source
ZSPD Decoded METAR 2022/06/30 14:00 UTC NOAA

Shanghai / Pudong, China (ZSPD) 31-07N 121-46E
Jun 30, 2022 - 10:00 AM EDT / 2022.06.30 1400 UTC
Wind: from the SSE (160 degrees) at 13 MPH (12 KT):0
Visibility: greater than 7 mile(s):0
Temperature: 80 F (27 C)
Dew Point: 75 F (24 C)
Relative Humidity: 83%
Pressure (altimeter): 29.80 in. Hg (1009 hPa)
ob: ZSPD 301400Z 16006MPS CAVOK 27/24 Q1009 NOSIG
cycle: 14

Station Type Date Time Source
ZSPD TAF 2022/06/30 12:03 UTC NOAA

TAF ZSPD 300904Z 3012/0112 16006MPS 6000 BKN020 TX32/0106Z TN26/3021Z

Example: see airport list